createdAt,value
2017-12-30T00:01:05.926Z,1.40
2017-12-30T00:03:33.550Z,1.40
2017-12-30T00:06:01.136Z,1.40
2017-12-30T00:08:28.759Z,1.40
2017-12-30T00:10:56.325Z,1.40
2017-12-30T00:13:23.940Z,1.40
2017-12-30T00:15:51.465Z,1.40
2017-12-30T00:18:19.075Z,1.40
2017-12-30T00:20:46.653Z,1.40
2017-12-30T00:23:15.053Z,1.40
2017-12-30T00:25:42.623Z,1.40
2017-12-30T00:28:10.233Z,1.40
2017-12-30T00:30:38.526Z,1.40
2017-12-30T00:33:06.910Z,1.40
2017-12-30T00:35:34.437Z,1.40
2017-12-30T00:38:02.007Z,1.40
2017-12-30T00:40:30.308Z,1.50
2017-12-30T00:42:57.922Z,1.50
2017-12-30T00:45:25.452Z,1.50
2017-12-30T00:47:53.023Z,1.50
2017-12-30T00:50:20.592Z,1.50
2017-12-30T00:52:48.235Z,1.50
2017-12-30T00:55:15.765Z,1.50
2017-12-30T00:57:43.333Z,1.50
2017-12-30T01:00:10.912Z,1.50
2017-12-30T01:02:38.534Z,1.50
2017-12-30T01:05:06.823Z,1.50
2017-12-30T01:07:34.544Z,1.50
2017-12-30T01:10:02.870Z,1.50
2017-12-30T01:12:30.447Z,1.50
2017-12-30T01:14:57.976Z,1.50
2017-12-30T01:17:26.360Z,1.50
2017-12-30T01:19:53.921Z,1.50
2017-12-30T01:22:21.523Z,1.50
2017-12-30T01:24:49.045Z,1.60
2017-12-30T01:27:16.617Z,1.50
2017-12-30T01:29:44.143Z,1.60
2017-12-30T01:32:12.539Z,1.50
2017-12-30T01:34:40.072Z,1.50
2017-12-30T01:37:07.645Z,1.50
2017-12-30T01:39:35.967Z,1.50
2017-12-30T01:42:03.568Z,1.60
2017-12-30T01:44:31.099Z,1.60
2017-12-30T01:46:58.818Z,1.60
2017-12-30T01:49:26.352Z,1.60
2017-12-30T01:51:54.726Z,1.60
2017-12-30T01:54:22.250Z,1.60
2017-12-30T01:56:49.818Z,1.60
2017-12-30T01:59:17.351Z,1.60
2017-12-30T02:01:44.919Z,1.50
2017-12-30T02:04:12.554Z,1.60
2017-12-30T02:06:40.138Z,1.60
2017-12-30T02:09:07.667Z,1.60
2017-12-30T02:11:36.027Z,1.60
2017-12-30T02:14:04.332Z,1.60
2017-12-30T02:16:31.896Z,1.60
2017-12-30T02:18:59.421Z,1.60
2017-12-30T02:21:26.996Z,1.60
2017-12-30T02:23:55.289Z,1.60
2017-12-30T02:26:22.971Z,1.60
2017-12-30T02:28:50.630Z,1.60
2017-12-30T02:31:18.298Z,1.60
2017-12-30T02:33:45.833Z,1.60
2017-12-30T02:36:13.412Z,1.60
2017-12-30T02:38:40.975Z,1.60
2017-12-30T02:41:08.614Z,1.60
2017-12-30T02:43:36.193Z,1.60
2017-12-30T02:46:03.780Z,1.60
2017-12-30T02:48:31.304Z,1.60
2017-12-30T02:50:58.924Z,1.60
2017-12-30T02:53:26.448Z,1.60
2017-12-30T02:55:54.014Z,1.60
2017-12-30T02:58:21.549Z,1.60
2017-12-30T03:00:49.123Z,1.60
2017-12-30T03:03:16.653Z,1.60
2017-12-30T03:05:44.248Z,1.60
2017-12-30T03:08:11.770Z,1.60
2017-12-30T03:10:39.341Z,1.60
2017-12-30T03:13:06.876Z,1.60
2017-12-30T03:15:35.212Z,1.60
2017-12-30T03:18:02.740Z,1.60
2017-12-30T03:20:30.306Z,1.60
2017-12-30T03:22:57.832Z,1.60
2017-12-30T03:25:26.167Z,1.70
2017-12-30T03:27:53.696Z,1.60
2017-12-30T03:30:21.267Z,1.60
2017-12-30T03:32:48.803Z,1.60
2017-12-30T03:35:16.378Z,1.60
2017-12-30T03:37:43.898Z,1.60
2017-12-30T03:40:12.226Z,1.60
2017-12-30T03:42:39.750Z,1.60
2017-12-30T03:45:07.316Z,1.60
2017-12-30T03:47:34.843Z,1.60
2017-12-30T03:50:03.183Z,1.60
2017-12-30T03:52:30.708Z,1.70
2017-12-30T03:54:58.274Z,1.60
2017-12-30T03:57:25.802Z,1.70
2017-12-30T03:59:53.372Z,1.70
2017-12-30T04:02:21.660Z,1.60
2017-12-30T04:04:49.991Z,1.60
2017-12-30T04:07:17.521Z,1.60
2017-12-30T04:09:45.091Z,1.60
2017-12-30T04:12:12.617Z,1.60
2017-12-30T04:14:40.178Z,1.60
2017-12-30T04:17:07.711Z,1.60
2017-12-30T04:19:35.320Z,1.60
2017-12-30T04:22:02.844Z,1.60
2017-12-30T04:24:31.170Z,1.60
2017-12-30T04:26:58.687Z,1.60
2017-12-30T04:29:27.024Z,1.60
2017-12-30T04:31:54.565Z,1.60
2017-12-30T04:34:22.140Z,1.60
2017-12-30T04:36:49.671Z,1.60
2017-12-30T04:39:17.244Z,1.60
2017-12-30T04:41:44.764Z,1.60
2017-12-30T04:44:12.332Z,1.60
2017-12-30T04:46:39.858Z,1.60
2017-12-30T04:49:07.431Z,1.60
2017-12-30T04:51:35.727Z,1.60
2017-12-30T04:54:03.298Z,1.60
2017-12-30T04:56:30.824Z,1.60
2017-12-30T04:58:59.196Z,1.60
2017-12-30T05:01:26.711Z,1.60
2017-12-30T05:03:54.361Z,1.60
2017-12-30T05:06:21.888Z,1.60
2017-12-30T05:08:49.488Z,1.60
2017-12-30T05:11:17.020Z,1.60
2017-12-30T05:13:44.588Z,1.60
2017-12-30T05:16:12.123Z,1.60
2017-12-30T05:18:40.463Z,1.60
2017-12-30T05:21:07.996Z,1.60
2017-12-30T05:23:35.577Z,1.60
2017-12-30T05:26:03.101Z,1.60
2017-12-30T05:28:30.676Z,1.60
2017-12-30T05:30:58.203Z,1.60
2017-12-30T05:33:26.538Z,1.60
2017-12-30T05:35:54.062Z,1.60
2017-12-30T05:38:21.632Z,1.60
2017-12-30T05:40:49.158Z,1.60
2017-12-30T05:43:17.497Z,1.60
2017-12-30T05:45:45.024Z,1.60
2017-12-30T05:48:12.594Z,1.60
2017-12-30T05:50:40.121Z,1.60
2017-12-30T05:53:07.687Z,1.60
2017-12-30T05:55:35.220Z,1.60
2017-12-30T05:58:03.556Z,1.60
2017-12-30T06:00:31.093Z,1.60
2017-12-30T06:02:58.670Z,1.60
2017-12-30T06:05:26.192Z,1.60
2017-12-30T06:07:54.528Z,1.50
2017-12-30T06:10:22.057Z,1.50
2017-12-30T06:12:49.618Z,1.50
2017-12-30T06:15:17.145Z,1.60
2017-12-30T06:17:45.471Z,1.60
2017-12-30T06:20:13.039Z,1.60
2017-12-30T06:22:40.563Z,1.60
2017-12-30T06:25:08.132Z,1.50
2017-12-30T06:27:35.651Z,1.50
2017-12-30T06:30:03.987Z,1.50
2017-12-30T06:32:31.516Z,1.50
2017-12-30T06:34:59.094Z,1.60
2017-12-30T06:37:26.621Z,1.50
2017-12-30T06:39:54.194Z,1.50
2017-12-30T06:42:21.720Z,1.60
2017-12-30T06:44:50.051Z,1.60
2017-12-30T06:47:17.570Z,1.50
2017-12-30T06:49:45.903Z,1.50
2017-12-30T06:52:13.432Z,1.50
2017-12-30T06:54:41.007Z,1.50
2017-12-30T06:57:08.536Z,1.50
2017-12-30T06:59:36.428Z,1.50
2017-12-30T07:02:03.959Z,1.50
2017-12-30T07:04:31.488Z,1.50
2017-12-30T07:06:59.065Z,1.50
2017-12-30T07:09:27.479Z,1.50
2017-12-30T07:11:55.012Z,1.50
2017-12-30T07:14:22.592Z,1.50
2017-12-30T07:16:50.119Z,1.50
2017-12-30T07:19:18.460Z,1.50
2017-12-30T07:21:45.989Z,1.50
2017-12-30T07:24:13.596Z,1.50
2017-12-30T07:26:41.126Z,1.50
2017-12-30T07:29:08.697Z,1.50
2017-12-30T07:31:36.221Z,1.50
2017-12-30T07:34:03.791Z,1.50
2017-12-30T07:36:31.318Z,1.50
2017-12-30T07:38:59.651Z,1.50
2017-12-30T07:41:27.305Z,1.50
2017-12-30T07:43:54.881Z,1.50
2017-12-30T07:46:22.509Z,1.50
2017-12-30T07:48:50.089Z,1.50
2017-12-30T07:51:17.610Z,1.50
2017-12-30T07:53:45.182Z,1.50
2017-12-30T07:56:12.710Z,1.50
2017-12-30T07:58:41.041Z,1.50
2017-12-30T08:01:08.571Z,1.50
2017-12-30T08:03:36.152Z,1.50
2017-12-30T08:06:03.689Z,1.50
2017-12-30T08:08:31.273Z,1.50
2017-12-30T08:10:58.796Z,1.50
2017-12-30T08:13:26.506Z,1.50
2017-12-30T08:15:54.042Z,1.50
2017-12-30T08:18:21.606Z,1.60
2017-12-30T08:20:49.138Z,1.50
2017-12-30T08:23:17.479Z,1.60
2017-12-30T08:25:45.014Z,1.50
2017-12-30T08:28:12.585Z,1.50
2017-12-30T08:30:40.115Z,1.60
2017-12-30T08:33:08.052Z,1.50
2017-12-30T08:35:36.568Z,1.60
2017-12-30T08:38:04.340Z,1.50
2017-12-30T08:40:31.985Z,1.60
2017-12-30T08:42:59.571Z,1.60
2017-12-30T08:45:27.113Z,1.60
2017-12-30T08:47:54.688Z,1.60
2017-12-30T08:50:22.220Z,1.60
2017-12-30T08:52:49.787Z,1.60
2017-12-30T08:55:17.323Z,1.60
2017-12-30T08:57:45.659Z,1.60
2017-12-30T09:00:13.190Z,1.60
2017-12-30T09:02:40.764Z,1.60
2017-12-30T09:05:08.287Z,1.60
2017-12-30T09:07:35.851Z,1.60
2017-12-30T09:10:03.377Z,1.60
2017-12-30T09:12:30.941Z,1.60
2017-12-30T09:14:59.230Z,1.60
2017-12-30T09:17:27.563Z,1.60
2017-12-30T09:19:55.204Z,1.60
2017-12-30T09:22:22.794Z,1.60
2017-12-30T09:24:50.318Z,1.60
2017-12-30T09:27:17.883Z,1.80
2017-12-30T09:29:45.403Z,1.90
2017-12-30T09:32:13.740Z,1.80
2017-12-30T09:34:41.266Z,1.80
2017-12-30T09:37:08.832Z,1.70
2017-12-30T09:39:36.364Z,1.70
2017-12-30T09:42:03.967Z,1.70
2017-12-30T09:44:31.843Z,1.70
2017-12-30T09:46:59.621Z,1.70
2017-12-30T09:49:27.407Z,1.70
2017-12-30T09:51:55.780Z,1.60
2017-12-30T09:54:24.159Z,1.70
2017-12-30T09:56:51.731Z,1.70
2017-12-30T09:59:20.053Z,1.70
2017-12-30T10:01:47.651Z,1.70
2017-12-30T10:04:15.234Z,1.70
2017-12-30T10:06:43.571Z,1.70
2017-12-30T10:09:11.094Z,1.60
2017-12-30T10:11:38.663Z,1.70
2017-12-30T10:14:06.188Z,1.70
2017-12-30T10:16:34.525Z,1.70
2017-12-30T10:19:02.122Z,1.70
2017-12-30T10:21:30.413Z,1.70
2017-12-30T10:23:57.984Z,1.70
2017-12-30T10:26:25.508Z,1.70
2017-12-30T10:28:53.075Z,1.70
2017-12-30T10:31:21.391Z,1.70
2017-12-30T10:33:48.913Z,1.70
2017-12-30T10:36:17.267Z,1.70
2017-12-30T10:38:46.308Z,1.70
2017-12-30T10:41:13.890Z,1.70
2017-12-30T10:43:41.464Z,1.70
2017-12-30T10:46:08.999Z,1.70
2017-12-30T10:48:36.523Z,1.70
2017-12-30T10:51:04.862Z,1.70
2017-12-30T10:53:32.427Z,1.70
2017-12-30T10:55:59.961Z,1.70
2017-12-30T10:58:27.488Z,1.70
2017-12-30T11:00:59.017Z,1.80
2017-12-30T11:03:26.715Z,1.80
2017-12-30T11:05:54.982Z,1.80
2017-12-30T11:08:23.310Z,1.80
2017-12-30T11:10:51.359Z,1.80
2017-12-30T11:13:18.954Z,1.80
2017-12-30T11:15:46.479Z,1.80
2017-12-30T11:18:14.054Z,1.80
2017-12-30T11:20:41.589Z,1.80
2017-12-30T11:23:09.118Z,1.80
2017-12-30T11:25:37.448Z,1.90
2017-12-30T11:28:08.750Z,1.80
2017-12-30T11:30:47.285Z,1.90
2017-12-30T11:33:14.854Z,1.90
2017-12-30T11:35:42.401Z,1.90
2017-12-30T11:38:09.986Z,1.90
2017-12-30T11:40:37.511Z,1.90
2017-12-30T11:43:05.095Z,1.90
2017-12-30T11:45:32.698Z,1.90
2017-12-30T11:48:00.272Z,1.90
2017-12-30T11:50:28.571Z,1.90
2017-12-30T11:52:56.137Z,1.90
2017-12-30T11:55:23.667Z,1.90
2017-12-30T11:57:52.002Z,1.90
2017-12-30T12:00:19.600Z,1.90
2017-12-30T12:02:47.190Z,1.90
2017-12-30T12:05:14.723Z,1.90
2017-12-30T12:07:43.124Z,1.90
2017-12-30T12:10:10.686Z,1.90
2017-12-30T12:12:38.328Z,1.90
2017-12-30T12:15:06.671Z,1.90
2017-12-30T12:17:34.264Z,1.90
2017-12-30T12:20:02.688Z,2.00
2017-12-30T12:22:30.327Z,1.90
2017-12-30T12:24:57.906Z,2.00
2017-12-30T12:27:25.479Z,2.00
2017-12-30T12:29:52.996Z,2.00
2017-12-30T12:32:21.340Z,2.00
2017-12-30T12:34:48.863Z,2.00
2017-12-30T12:37:16.381Z,2.00
2017-12-30T12:39:44.711Z,2.00
2017-12-30T12:42:12.280Z,2.00
2017-12-30T12:44:39.809Z,2.00
2017-12-30T12:47:07.376Z,2.00
2017-12-30T12:49:34.905Z,2.00
2017-12-30T12:52:03.254Z,2.10
2017-12-30T12:54:30.785Z,2.10
2017-12-30T12:56:58.309Z,2.10
2017-12-30T12:59:25.881Z,2.10
2017-12-30T13:01:53.414Z,2.10
2017-12-30T13:04:20.998Z,2.10
2017-12-30T13:06:48.525Z,2.10
2017-12-30T13:09:16.131Z,2.10
2017-12-30T13:11:43.654Z,2.10
2017-12-30T13:14:11.991Z,2.20
2017-12-30T13:16:39.514Z,2.20
2017-12-30T13:19:07.080Z,2.20
2017-12-30T13:21:34.609Z,2.20
2017-12-30T13:24:02.940Z,2.20
2017-12-30T13:26:33.272Z,2.20
2017-12-30T13:28:58.064Z,2.20
2017-12-30T13:31:25.591Z,2.20
2017-12-30T13:33:53.159Z,2.20
2017-12-30T13:36:20.683Z,2.30
2017-12-30T13:38:49.019Z,2.30
2017-12-30T13:41:16.546Z,2.30
2017-12-30T13:43:44.117Z,2.30
2017-12-30T13:46:11.648Z,2.30
2017-12-30T13:48:40.056Z,2.30
2017-12-30T13:51:07.590Z,2.30
2017-12-30T13:53:35.159Z,2.30
2017-12-30T13:56:02.800Z,2.30
2017-12-30T13:58:30.378Z,2.40
2017-12-30T14:00:57.954Z,2.40
2017-12-30T14:03:25.519Z,2.40
2017-12-30T14:05:53.055Z,2.40
2017-12-30T14:08:20.618Z,2.40
2017-12-30T14:10:48.148Z,2.40
2017-12-30T14:13:16.525Z,2.40
2017-12-30T14:15:44.051Z,2.40
2017-12-30T14:18:11.621Z,2.40
2017-12-30T14:20:39.187Z,2.40
2017-12-30T14:23:06.779Z,2.50
2017-12-30T14:25:35.073Z,2.50
2017-12-30T14:28:02.641Z,2.50
2017-12-30T14:30:30.212Z,2.50
2017-12-30T14:32:57.783Z,2.60
2017-12-30T14:35:25.352Z,2.60
2017-12-30T14:37:52.923Z,2.60
2017-12-30T14:40:20.563Z,2.60
2017-12-30T14:42:48.162Z,2.60
2017-12-30T14:45:16.712Z,2.60
2017-12-30T14:47:44.241Z,2.60
2017-12-30T14:50:11.854Z,2.70
2017-12-30T14:52:39.384Z,2.70
2017-12-30T14:55:06.947Z,2.70
2017-12-30T14:57:34.472Z,2.70
2017-12-30T15:00:02.038Z,2.70
2017-12-30T15:02:29.571Z,2.80
2017-12-30T15:04:57.987Z,2.80
2017-12-30T15:07:25.511Z,2.80
2017-12-30T15:09:53.897Z,2.80
2017-12-30T15:12:22.186Z,2.90
2017-12-30T15:14:49.761Z,2.80
2017-12-30T15:17:17.338Z,2.90
2017-12-30T15:19:44.924Z,2.90
2017-12-30T15:22:12.454Z,2.90
2017-12-30T15:24:40.024Z,2.90
2017-12-30T15:27:07.593Z,2.90
2017-12-30T15:29:35.164Z,2.90
2017-12-30T15:32:02.739Z,2.90
2017-12-30T15:34:31.102Z,2.90
2017-12-30T15:36:58.631Z,2.90
2017-12-30T15:39:26.158Z,2.90
2017-12-30T15:41:53.772Z,2.90
2017-12-30T15:44:21.346Z,2.90
2017-12-30T15:46:48.923Z,2.90
2017-12-30T15:49:17.210Z,2.90
2017-12-30T15:51:45.543Z,3.00
2017-12-30T15:54:13.065Z,2.90
2017-12-30T15:56:40.635Z,3.00
2017-12-30T15:59:08.161Z,3.00
2017-12-30T16:01:36.533Z,3.10
2017-12-30T16:04:04.822Z,3.00
2017-12-30T16:06:32.438Z,3.00
2017-12-30T16:08:59.967Z,3.00
2017-12-30T16:11:27.583Z,3.00
2017-12-30T16:13:55.883Z,3.10
2017-12-30T16:16:23.497Z,3.00
2017-12-30T16:18:51.067Z,3.10
2017-12-30T16:21:18.675Z,3.10
2017-12-30T16:23:46.245Z,3.10
2017-12-30T16:26:13.817Z,3.20
2017-12-30T16:28:41.341Z,3.20
2017-12-30T16:31:08.906Z,3.20
2017-12-30T16:33:36.434Z,3.20
2017-12-30T16:36:03.994Z,3.30
2017-12-30T16:38:32.288Z,3.30
2017-12-30T16:41:00.661Z,3.40
2017-12-30T16:43:29.205Z,3.40
2017-12-30T16:45:56.971Z,3.40
2017-12-30T16:48:24.518Z,3.40
2017-12-30T16:50:52.082Z,3.40
2017-12-30T16:53:19.612Z,3.40
2017-12-30T16:55:47.184Z,3.40
2017-12-30T16:58:14.710Z,3.40
2017-12-30T17:00:43.043Z,3.50
2017-12-30T17:03:10.573Z,3.50
2017-12-30T17:05:39.626Z,3.50
2017-12-30T17:08:07.924Z,3.50
2017-12-30T17:10:35.485Z,3.50
2017-12-30T17:13:03.021Z,3.50
2017-12-30T17:15:30.584Z,3.50
2017-12-30T17:17:58.883Z,3.60
2017-12-30T17:20:26.450Z,3.60
2017-12-30T17:22:54.032Z,3.70
2017-12-30T17:25:21.595Z,3.70
2017-12-30T17:27:49.122Z,3.70
2017-12-30T17:30:16.703Z,3.60
2017-12-30T17:32:44.230Z,3.70
2017-12-30T17:35:12.620Z,3.70
2017-12-30T17:37:40.436Z,3.70
2017-12-30T17:40:08.004Z,3.70
2017-12-30T17:42:39.327Z,3.70
2017-12-30T17:45:06.946Z,3.70
2017-12-30T17:47:35.286Z,3.70
2017-12-30T17:50:02.906Z,3.70
2017-12-30T17:52:33.350Z,3.80
2017-12-30T17:55:00.979Z,3.80
2017-12-30T17:57:29.314Z,3.90
2017-12-30T17:59:56.899Z,3.90
2017-12-30T18:02:25.282Z,3.90
2017-12-30T18:04:53.575Z,4.00
2017-12-30T18:07:21.950Z,4.00
2017-12-30T18:09:50.283Z,4.00
2017-12-30T18:12:17.905Z,4.00
2017-12-30T18:14:45.480Z,4.00
2017-12-30T18:17:13.204Z,4.00
2017-12-30T18:19:41.543Z,4.00
2017-12-30T18:22:09.120Z,4.00
2017-12-30T18:24:36.699Z,4.00
2017-12-30T18:27:05.093Z,4.00
2017-12-30T18:29:32.677Z,4.00
2017-12-30T18:32:00.299Z,4.10
2017-12-30T18:34:28.642Z,4.10
2017-12-30T18:36:56.281Z,4.10
2017-12-30T18:39:23.852Z,4.10
2017-12-30T18:41:51.456Z,4.20
2017-12-30T18:44:19.810Z,4.10
2017-12-30T18:46:47.441Z,4.10
2017-12-30T18:49:15.043Z,4.10
2017-12-30T18:51:43.388Z,4.20
2017-12-30T18:54:10.978Z,4.20
2017-12-30T18:56:38.763Z,4.20
2017-12-30T18:59:06.446Z,4.30
2017-12-30T19:01:34.101Z,4.30
2017-12-30T19:04:01.703Z,4.30
2017-12-30T19:06:29.363Z,4.30
2017-12-30T19:08:57.021Z,4.30
2017-12-30T19:11:24.614Z,4.30
2017-12-30T19:13:52.236Z,4.30
2017-12-30T19:16:19.818Z,4.30
2017-12-30T19:18:47.561Z,4.30
2017-12-30T19:21:15.105Z,4.40
2017-12-30T19:23:42.733Z,4.40
2017-12-30T19:26:11.091Z,4.40
2017-12-30T19:28:39.483Z,4.40
2017-12-30T19:31:07.070Z,4.40
2017-12-30T19:33:34.718Z,4.40
2017-12-30T19:36:03.125Z,4.40
2017-12-30T19:38:30.935Z,4.40
2017-12-30T19:40:58.773Z,4.40
2017-12-30T19:43:26.538Z,4.50
2017-12-30T19:45:54.126Z,4.50
2017-12-30T19:48:21.967Z,4.50
2017-12-30T19:50:49.731Z,4.50
2017-12-30T19:53:17.409Z,4.60
2017-12-30T19:55:45.156Z,4.60
2017-12-30T19:58:13.021Z,4.60
2017-12-30T20:00:40.684Z,4.60
2017-12-30T20:03:08.448Z,4.60
2017-12-30T20:05:36.122Z,4.60
2017-12-30T20:08:03.875Z,4.60
2017-12-30T20:10:31.686Z,4.60
2017-12-30T20:13:00.163Z,4.60
2017-12-30T20:15:28.704Z,4.60
2017-12-30T20:17:56.373Z,4.60
2017-12-30T20:20:24.001Z,4.60
2017-12-30T20:22:51.665Z,4.60
2017-12-30T20:25:19.454Z,4.60
2017-12-30T20:27:47.094Z,4.70
2017-12-30T20:30:14.881Z,4.70
2017-12-30T20:32:42.646Z,4.70
2017-12-30T20:35:10.342Z,4.70
2017-12-30T20:37:37.927Z,4.80
2017-12-30T20:40:06.361Z,4.80
2017-12-30T20:42:33.978Z,4.80
2017-12-30T20:45:01.682Z,4.90
2017-12-30T20:47:29.272Z,4.90
2017-12-30T20:49:56.895Z,4.90
2017-12-30T20:52:24.487Z,4.90
2017-12-30T20:54:52.226Z,4.90
2017-12-30T20:57:19.824Z,4.90
2017-12-30T20:59:47.581Z,5.00
2017-12-30T21:02:15.175Z,5.00
2017-12-30T21:04:42.799Z,5.00
2017-12-30T21:07:11.910Z,5.00
2017-12-30T21:09:40.302Z,5.00
2017-12-30T21:12:08.655Z,5.00
2017-12-30T21:14:36.291Z,5.00
2017-12-30T21:17:05.503Z,5.10
2017-12-30T21:19:33.127Z,5.00
2017-12-30T21:22:00.705Z,5.10
2017-12-30T21:24:28.330Z,5.10
2017-12-30T21:26:55.927Z,5.10
2017-12-30T21:29:23.542Z,5.10
2017-12-30T21:31:51.927Z,5.20
2017-12-30T21:34:20.274Z,5.20
2017-12-30T21:36:47.885Z,5.20
2017-12-30T21:39:15.666Z,5.20
2017-12-30T21:41:43.291Z,5.20
2017-12-30T21:44:10.866Z,5.20
2017-12-30T21:46:38.445Z,5.30
2017-12-30T21:49:06.067Z,5.30
2017-12-30T21:51:34.419Z,5.30
2017-12-30T21:54:02.039Z,5.30
2017-12-30T21:56:29.627Z,5.30
2017-12-30T21:58:57.251Z,5.30
2017-12-30T22:01:24.851Z,5.30
2017-12-30T22:03:52.489Z,5.30
2017-12-30T22:06:20.072Z,5.30
2017-12-30T22:08:47.658Z,5.40
2017-12-30T22:11:16.047Z,5.40
2017-12-30T22:13:44.438Z,5.40
2017-12-30T22:16:12.062Z,5.40
2017-12-30T22:18:39.658Z,5.40
2017-12-30T22:21:07.284Z,5.40
2017-12-30T22:23:34.875Z,5.40
2017-12-30T22:26:03.271Z,5.50
2017-12-30T22:28:30.859Z,5.40
2017-12-30T22:30:58.466Z,5.50
2017-12-30T22:33:26.815Z,5.50
2017-12-30T22:35:54.448Z,5.50
2017-12-30T22:38:22.103Z,5.60
2017-12-30T22:40:49.684Z,5.60
2017-12-30T22:43:17.298Z,5.60
2017-12-30T22:45:44.921Z,5.60
2017-12-30T22:48:12.537Z,5.60
2017-12-30T22:50:40.123Z,5.60
2017-12-30T22:53:07.708Z,5.70
2017-12-30T22:55:35.326Z,5.60
2017-12-30T22:58:02.906Z,5.60
2017-12-30T23:00:37.738Z,5.70
2017-12-30T23:03:05.323Z,5.70
2017-12-30T23:05:32.900Z,5.70
2017-12-30T23:08:01.270Z,5.70
2017-12-30T23:10:28.890Z,5.70
2017-12-30T23:12:56.553Z,5.70
2017-12-30T23:15:24.188Z,5.80
2017-12-30T23:17:51.770Z,5.80
2017-12-30T23:20:19.357Z,5.80
2017-12-30T23:22:46.979Z,5.80
2017-12-30T23:25:14.559Z,5.80
2017-12-30T23:27:42.175Z,5.80
2017-12-30T23:30:10.597Z,5.80
2017-12-30T23:32:38.224Z,5.90
2017-12-30T23:35:05.788Z,5.90
2017-12-30T23:37:33.378Z,5.90
2017-12-30T23:40:01.010Z,5.90
2017-12-30T23:42:28.599Z,5.90
2017-12-30T23:44:56.264Z,6.00
2017-12-30T23:47:23.889Z,6.00
2017-12-30T23:49:51.486Z,6.00
2017-12-30T23:52:19.112Z,6.00
2017-12-30T23:54:46.729Z,6.10
2017-12-30T23:57:14.358Z,6.10
2017-12-30T23:59:41.954Z,6.10
